Time;durP1;ratioP1;P1;durP2;ratioP2;P2;SDS_P1;SDS_P2;PMS_P1;PMS_P2;Temp;Humidity;BMP_temperature;BMP_pressure;BME280_temperature;BME280_humidity;BME280_pressure;Samples;Min_cycle;Max_cycle;Signal;HPM_P1;HPM_P2
2022/03/04 00:00:03;;;;;;;42.20;17.58;;;2.80;99.90;;;;;;4901809;29;20040;-72
2022/03/04 00:02:30;;;;;;;48.47;17.45;;;;;;;;;;4901586;29;20040;-72
2022/03/04 00:04:56;;;;;;;48.47;19.75;;;;;;;;;;4886279;29;20051;-72
2022/03/04 00:07:22;;;;;;;50.35;18.75;;;;;;;;;;4901252;29;20496;-72
2022/03/04 00:09:48;;;;;;;43.53;18.00;;;;;;;;;;4901714;29;20052;-72
2022/03/04 00:12:14;;;;;;;48.05;18.02;;;;;;;;;;4901430;29;20051;-72
2022/03/04 00:14:40;;;;;;;40.67;15.85;;;;;;;;;;4901750;29;20378;-72
2022/03/04 00:17:06;;;;;;;36.97;17.05;;;;;;;;;;4901166;29;20583;-72
2022/03/04 00:19:32;;;;;;;38.17;16.80;;;;;;;;;;4886285;29;20370;-72
2022/03/04 00:21:58;;;;;;;38.00;15.77;;;;;;;;;;4901333;29;20089;-72
2022/03/04 00:24:25;;;;;;;40.42;15.80;;;;;;;;;;4901507;29;20052;-72
2022/03/04 00:26:51;;;;;;;40.92;17.40;;;;;;;;;;4901073;29;20369;-72
2022/03/04 00:29:17;;;;;;;43.75;17.33;;;;;;;;;;4901350;29;20567;-72
2022/03/04 00:31:43;;;;;;;47.47;16.58;;;;;;;;;;4900686;29;20130;-72
2022/03/04 00:34:10;;;;;;;35.03;16.05;;;;;;;;;;4901272;29;20132;-72
2022/03/04 00:36:37;;;;;;;40.92;15.38;;;2.40;99.90;;;;;;4900847;29;20092;-72
2022/03/04 00:39:04;;;;;;;37.63;15.05;;;;;;;;;;4885634;29;20420;-72
2022/03/04 00:41:30;;;;;;;37.60;15.35;;;;;;;;;;4918038;29;20040;-72
2022/03/04 00:43:56;;;;;;;37.95;15.98;;;;;;;;;;4900846;29;20067;-72
2022/03/04 00:46:23;;;;;;;32.75;13.93;;;;;;;;;;4900793;29;20051;-72
2022/03/04 00:48:49;;;;;;;36.25;15.15;;;;;;;;;;4900546;29;20044;-72
2022/03/04 00:51:16;;;;;;;37.35;15.90;;;2.30;99.90;;;;;;4901100;29;20094;-72
2022/03/04 00:53:42;;;;;;;36.38;14.00;;;;;;;;;;4901101;29;20111;-72
2022/03/04 00:56:09;;;;;;;37.33;15.88;;;;;;;;;;4900825;29;20036;-72
2022/03/04 00:58:36;;;;;;;36.80;14.07;;;2.20;99.90;;;;;;4900567;29;20048;-72
2022/03/04 01:01:03;;;;;;;31.17;14.23;;;2.00;99.90;;;;;;4900740;29;20055;-72
2022/03/04 01:03:29;;;;;;;33.47;14.65;;;;;;;;;;4900552;29;20044;-72
2022/03/04 01:05:55;;;;;;;39.13;15.40;;;;;;;;;;4900655;29;20048;-72
2022/03/04 01:08:21;;;;;;;34.72;14.85;;;;;;;;;;4900377;29;20188;-72
2022/03/04 01:10:47;;;;;;;31.42;14.18;;;;;;;;;;4900401;29;20543;-72
2022/03/04 01:13:14;;;;;;;28.42;12.98;;;;;;;;;;4900531;29;20044;-72
2022/03/04 01:15:40;;;;;;;32.42;13.82;;;;;;;;;;4900504;29;20124;-72
2022/03/04 01:18:06;;;;;;;31.05;14.23;;;;;;;;;;4900229;29;20054;-72
2022/03/04 01:20:33;;;;;;;31.33;12.45;;;;;;;;;;4900301;29;20054;-72
2022/03/04 01:22:59;;;;;;;31.75;14.25;;;;;;;;;;4900136;29;20066;-72
2022/03/04 01:25:26;;;;;;;32.95;14.70;;;;;;;;;;4900306;29;20043;-72
2022/03/04 01:27:52;;;;;;;30.92;12.80;;;;;;;;;;4900222;29;20119;-72
2022/03/04 01:30:18;;;;;;;27.98;12.30;;;;;;;;;;4900549;29;20040;-72
2022/03/04 01:32:45;;;;;;;29.45;12.85;;;;;;;;;;4900202;29;20055;-72
2022/03/04 01:35:11;;;;;;;35.67;14.10;;;;;;;;;;4900394;29;20048;-72
2022/03/04 01:37:37;;;;;;;30.77;13.98;;;;;;;;;;4899929;29;20126;-72
2022/03/04 01:40:06;;;;;;;30.20;13.70;;;1.90;99.90;;;;;;4900252;29;20095;-72
2022/03/04 01:42:34;;;;;;;32.13;13.43;;;;;;;;;;4899994;29;20040;-72
2022/03/04 01:45:00;;;;;;;31.02;13.45;;;;;;;;;;4881629;29;20114;-72
2022/03/04 01:47:26;;;;;;;27.63;12.70;;;;;;;;;;4881221;29;20048;-72
2022/03/04 01:49:52;;;;;;;32.22;13.55;;;;;;;;;;4898657;29;20040;-72
2022/03/04 01:52:19;;;;;;;29.70;12.77;;;;;;;;;;4900337;29;20055;-72
2022/03/04 01:54:45;;;;;;;28.40;12.73;;;;;;;;;;4900037;29;20056;-72
2022/03/04 01:57:11;;;;;;;31.67;13.25;;;;;;;;;;4900302;29;20099;-73
2022/03/04 01:59:37;;;;;;;29.27;13.25;;;;;;;;;;4899754;29;20047;-72
2022/03/04 02:02:03;;;;;;;31.98;13.27;;;;;;;;;;4899596;29;20044;-72
2022/03/04 02:04:29;;;;;;;29.52;14.18;;;;;;;;;;4899636;29;20127;-72
2022/03/04 02:06:55;;;;;;;36.83;14.10;;;;;;;;;;4899897;29;20044;-72
2022/03/04 02:09:22;;;;;;;35.05;13.48;;;;;;;;;;4899450;29;20111;-72
2022/03/04 02:11:48;;;;;;;35.10;14.63;;;;;;;;;;4900277;29;20075;-73
2022/03/04 02:14:14;;;;;;;33.47;14.18;;;;;;;;;;4899616;29;20052;-72
2022/03/04 02:16:42;;;;;;;37.25;14.48;;;1.50;99.90;;;;;;4899962;29;20241;-72
2022/03/04 02:19:08;;;;;;;33.90;14.52;;;;;;;;;;4883869;29;20048;-72
2022/03/04 02:21:34;;;;;;;37.75;16.30;;;;;;;;;;4900052;29;20048;-72
2022/03/04 02:24:01;;;;;;;35.80;14.77;;;;;;;;;;4899664;29;20123;-72
2022/03/04 02:26:27;;;;;;;35.45;14.02;;;;;;;;;;4899637;29;20044;-72
2022/03/04 02:28:53;;;;;;;39.05;16.52;;;;;;;;;;4899364;29;20040;-73
2022/03/04 02:31:20;;;;;;;30.83;13.50;;;1.60;99.90;;;;;;4899918;29;20040;-73
2022/03/04 02:33:47;;;;;;;33.40;13.75;;;1.40;99.90;;;;;;4899227;29;20115;-73
2022/03/04 02:36:13;;;;;;;30.98;13.80;;;1.40;99.90;;;;;;4884432;29;20040;-73
2022/03/04 02:38:39;;;;;;;36.90;15.35;;;;;;;;;;4899143;29;20104;-73
2022/03/04 02:41:06;;;;;;;32.75;13.80;;;;;;;;;;4899946;29;20044;-73
2022/03/04 02:43:32;;;;;;;30.83;14.60;;;1.60;99.90;;;;;;4899675;29;20555;-73
2022/03/04 02:45:58;;;;;;;33.83;14.40;;;;;;;;;;4899555;29;20145;-73
2022/03/04 02:48:24;;;;;;;32.47;15.18;;;;;;;;;;4899295;29;20080;-73
2022/03/04 02:50:50;;;;;;;30.45;13.48;;;;;;;;;;4899511;29;20048;-73
2022/03/04 02:53:16;;;;;;;37.92;15.07;;;;;;;;;;4899303;29;20131;-73
2022/03/04 02:55:42;;;;;;;33.60;14.38;;;;;;;;;;4902936;29;20390;-69
2022/03/04 02:58:09;;;;;;;35.42;14.45;;;;;;;;;;4919957;29;20040;-72
2022/03/04 03:00:35;;;;;;;35.72;15.70;;;;;;;;;;4902491;29;20052;-72
2022/03/04 03:03:01;;;;;;;35.13;14.30;;;;;;;;;;4902811;29;20075;-71
2022/03/04 03:05:27;;;;;;;38.85;15.65;;;;;;;;;;4901810;29;20401;-72
2022/03/04 03:07:54;;;;;;;35.17;14.85;;;;;;;;;;4900353;29;20075;-72
2022/03/04 03:10:20;;;;;;;36.13;14.60;;;;;;;;;;4900773;29;20044;-72
2022/03/04 03:12:46;;;;;;;32.33;15.18;;;;;;;;;;4902864;29;20492;-72
2022/03/04 03:15:12;;;;;;;40.00;15.63;;;;;;;;;;4902670;29;20461;-72
2022/03/04 03:17:38;;;;;;;37.17;15.50;;;;;;;;;;4902600;29;20432;-72
2022/03/04 03:20:07;;;;;;;36.65;15.45;;;1.00;99.90;;;;;;4902379;29;20130;-72
2022/03/04 03:22:33;;;;;;;35.72;14.45;;;;;;;;;;4902432;29;20052;-72
2022/03/04 03:24:59;;;;;;;46.85;15.63;;;;;;;;;;4902253;29;20073;-72
2022/03/04 03:27:25;;;;;;;37.67;14.50;;;;;;;;;;4902474;29;20100;-72
2022/03/04 03:29:51;;;;;;;40.17;14.88;;;;;;;;;;4886537;29;20040;-72
2022/03/04 03:32:17;;;;;;;37.65;15.57;;;;;;;;;;4902472;29;20079;-72
2022/03/04 03:34:43;;;;;;;37.22;15.38;;;;;;;;;;4901647;29;20040;-72
2022/03/04 03:37:10;;;;;;;39.38;14.90;;;;;;;;;;4902192;29;20048;-72
2022/03/04 03:39:37;;;;;;;44.50;15.48;;;1.20;99.90;;;;;;4886549;29;20118;-72
2022/03/04 03:42:04;;;;;;;35.10;14.73;;;1.20;99.90;;;;;;4902297;29;20052;-72
2022/03/04 03:44:30;;;;;;;38.22;16.40;;;;;;;;;;4902011;29;20106;-72
2022/03/04 03:46:57;;;;;;;40.72;16.38;;;;;;;;;;4901947;29;20052;-72
2022/03/04 03:49:23;;;;;;;44.20;16.98;;;1.10;99.90;;;;;;4901859;29;20504;-72
2022/03/04 03:51:49;;;;;;;39.13;16.45;;;;;;;;;;4919012;29;20113;-72
2022/03/04 03:54:16;;;;;;;35.47;15.00;;;;;;;;;;4901659;29;20044;-72
2022/03/04 03:56:42;;;;;;;41.45;16.80;;;;;;;;;;4901755;29;20118;-72
2022/03/04 03:59:08;;;;;;;42.85;17.50;;;;;;;;;;4902018;29;20396;-72
2022/03/04 04:01:34;;;;;;;41.08;15.77;;;;;;;;;;4901417;29;20048;-72
2022/03/04 04:04:01;;;;;;;39.22;16.25;;;;;;;;;;4901658;29;20059;-72
2022/03/04 04:06:27;;;;;;;36.05;16.13;;;;;;;;;;4901207;29;20159;-72
2022/03/04 04:08:53;;;;;;;37.08;16.55;;;;;;;;;;4901597;29;20063;-72
2022/03/04 04:11:19;;;;;;;43.10;17.90;;;;;;;;;;4901489;29;20550;-72
2022/03/04 04:13:45;;;;;;;38.70;16.15;;;;;;;;;;4901589;29;20051;-73
2022/03/04 04:16:14;;;;;;;46.45;17.33;;;;;;;;;;4901548;29;20040;-74
2022/03/04 04:18:41;;;;;;;40.00;16.67;;;;;;;;;;4901605;29;20492;-74
2022/03/04 04:21:07;;;;;;;37.25;16.20;;;;;;;;;;4901684;29;20032;-74
2022/03/04 04:23:34;;;;;;;37.92;15.65;;;;;;;;;;4901459;29;20063;-74
2022/03/04 04:26:00;;;;;;;40.45;15.45;;;;;;;;;;4901458;29;20099;-75
2022/03/04 04:28:26;;;;;;;39.10;16.52;;;;;;;;;;4901598;29;20079;-74
2022/03/04 04:30:52;;;;;;;43.67;16.33;;;;;;;;;;4901778;29;20165;-74
2022/03/04 04:33:18;;;;;;;34.58;15.55;;;;;;;;;;4901154;29;20044;-74
2022/03/04 04:35:44;;;;;;;38.25;15.57;;;;;;;;;;4885578;29;20042;-74
2022/03/04 04:38:10;;;;;;;38.42;17.27;;;;;;;;;;4901006;29;20111;-74
2022/03/04 04:40:37;;;;;;;35.63;15.98;;;;;;;;;;4885753;29;20397;-74
2022/03/04 04:43:03;;;;;;;39.78;16.35;;;;;;;;;;4901448;29;20388;-74
2022/03/04 04:45:29;;;;;;;37.55;15.93;;;;;;;;;;4900985;29;20052;-74
2022/03/04 04:47:56;;;;;;;37.53;15.02;;;;;;;;;;4901040;29;20127;-74
2022/03/04 04:50:22;;;;;;;37.03;16.25;;;;;;;;;;4900885;29;20040;-73
2022/03/04 04:52:48;;;;;;;41.42;16.52;;;;;;;;;;4900606;29;20040;-73
2022/03/04 04:55:14;;;;;;;45.10;17.15;;;;;;;;;;4900746;29;20044;-73
2022/03/04 04:57:40;;;;;;;39.50;16.88;;;;;;;;;;4900687;29;20111;-73
2022/03/04 05:00:07;;;;;;;36.95;16.35;;;;;;;;;;4917876;29;20040;-73
2022/03/04 05:02:33;;;;;;;37.25;15.32;;;;;;;;;;4900757;29;20118;-73
2022/03/04 05:04:59;;;;;;;44.97;17.80;;;;;;;;;;4901072;29;20543;-73
2022/03/04 05:07:25;;;;;;;37.78;16.02;;;;;;;;;;4900373;29;20044;-73
2022/03/04 05:09:51;;;;;;;45.28;16.67;;;;;;;;;;4900320;29;20441;-73
2022/03/04 05:12:18;;;;;;;45.92;17.45;;;;;;;;;;4885143;29;20044;-74
2022/03/04 05:14:44;;;;;;;43.25;17.15;;;;;;;;;;4900491;29;20040;-73
2022/03/04 05:17:10;;;;;;;42.35;17.30;;;;;;;;;;4900206;29;20044;-75
2022/03/04 05:19:36;;;;;;;41.28;16.60;;;;;;;;;;4900897;29;20054;-75
2022/03/04 05:22:02;;;;;;;44.03;17.40;;;;;;;;;;4900253;29;20066;-74
2022/03/04 05:24:28;;;;;;;39.67;15.40;;;;;;;;;;4900458;29;20175;-74
2022/03/04 05:26:54;;;;;;;42.13;15.60;;;;;;;;;;4900027;29;20048;-74
2022/03/04 05:29:20;;;;;;;41.30;16.80;;;;;;;;;;4900491;29;20048;-74
2022/03/04 05:31:47;;;;;;;43.80;17.48;;;;;;;;;;4899892;29;20176;-73
2022/03/04 05:34:13;;;;;;;42.40;17.58;;;;;;;;;;4900268;29;20044;-73
2022/03/04 05:36:39;;;;;;;44.13;16.95;;;0.30;99.90;;;;;;4900433;29;20075;-73
2022/03/04 05:39:05;;;;;;;45.85;18.65;;;;;;;;;;4900318;29;20127;-74
2022/03/04 05:41:32;;;;;;;40.28;16.83;;;;;;;;;;4900014;29;20488;-73
2022/03/04 05:43:58;;;;;;;43.13;17.60;;;;;;;;;;4900085;29;20044;-71
2022/03/04 05:46:24;;;;;;;46.33;17.65;;;;;;;;;;4899735;29;20135;-71
2022/03/04 05:48:50;;;;;;;44.08;17.00;;;;;;;;;;4900248;29;20040;-71
2022/03/04 05:51:17;;;;;;;43.30;18.13;;;;;;;;;;4900240;29;20044;-71
2022/03/04 05:53:43;;;;;;;40.88;17.52;;;;;;;;;;4900066;29;20075;-71
2022/03/04 05:56:09;;;;;;;40.38;17.05;;;;;;;;;;4900198;29;20497;-71
2022/03/04 05:58:36;;;;;;;44.83;18.33;;;;;;;;;;4884567;29;20044;-71
2022/03/04 06:01:03;;;;;;;41.45;16.98;;;;;;;;;;4899768;29;20517;-70
2022/03/04 06:03:29;;;;;;;43.58;17.63;;;;;;;;;;4884307;29;20399;-71
2022/03/04 06:05:56;;;;;;;44.80;18.98;;;;;;;;;;4899872;29;20040;-71
2022/03/04 06:08:22;;;;;;;39.55;16.30;;;;;;;;;;4899509;29;20053;-71
2022/03/04 06:10:48;;;;;;;43.28;18.25;;;;;;;;;;4899691;29;20485;-71
2022/03/04 06:13:14;;;;;;;48.08;16.85;;;;;;;;;;4899907;29;20100;-71
2022/03/04 06:15:40;;;;;;;45.30;17.08;;;;;;;;;;4899811;29;20079;-73
2022/03/04 06:18:06;;;;;;;53.55;18.83;;;;;;;;;;4899911;29;20060;-71
2022/03/04 06:20:32;;;;;;;47.13;17.83;;;;;;;;;;4900401;29;20442;-71
2022/03/04 06:22:58;;;;;;;44.30;16.70;;;;;;;;;;4899822;29;20115;-71
2022/03/04 06:25:25;;;;;;;43.53;16.58;;;;;;;;;;4899449;29;20048;-71
2022/03/04 06:27:58;;;;;;;45.40;18.15;;;;;;;;;;4899527;29;20050;-71
2022/03/04 06:30:25;;;;;;;46.13;18.02;;;;;;;;;;4901656;29;20507;-70
2022/03/04 06:33:30;;;;;;;41.42;17.33;;;0.20;99.90;;;;;;4902791;29;20119;-70
2022/03/04 06:35:39;;;;;;;42.72;17.77;;;;;;;;;;4901710;29;20044;-68
2022/03/04 06:38:05;;;;;;;45.17;17.95;;;;;;;;;;4919411;29;20119;-70
2022/03/04 06:40:31;;;;;;;43.40;17.38;;;;;;;;;;4903236;29;20052;-70
2022/03/04 06:42:57;;;;;;;44.95;17.00;;;;;;;;;;4903058;29;20477;-70
2022/03/04 06:45:23;;;;;;;46.75;18.63;;;;;;;;;;4903156;29;20047;-69
2022/03/04 06:47:49;;;;;;;50.60;18.70;;;;;;;;;;4902866;29;20459;-69
2022/03/04 06:50:15;;;;;;;46.72;17.83;;;;;;;;;;4903426;29;20489;-70
2022/03/04 06:52:43;;;;;;;52.88;19.13;;;;;;;;;;4902937;29;20396;-70
2022/03/04 06:55:09;;;;;;;42.53;17.52;;;0.10;99.90;;;;;;4902778;29;20480;-70
2022/03/04 06:57:35;;;;;;;44.15;18.63;;;;;;;;;;4902747;29;20099;-70
2022/03/04 07:00:03;;;;;;;48.88;17.90;;;;;;;;;;4902673;29;20096;-70
2022/03/04 07:02:29;;;;;;;45.72;17.83;;;;;;;;;;4902460;29;20138;-70
2022/03/04 07:04:55;;;;;;;50.78;18.70;;;;;;;;;;4902409;29;20048;-71
2022/03/04 07:07:21;;;;;;;57.72;20.55;;;;;;;;;;4902436;29;20040;-69
2022/03/04 07:09:47;;;;;;;51.03;20.98;;;;;;;;;;4902380;29;20134;-69
2022/03/04 07:12:13;;;;;;;57.97;21.27;;;;;;;;;;4902896;29;20039;-69
2022/03/04 07:14:39;;;;;;;49.30;19.65;;;;;;;;;;4899614;29;20048;-69
2022/03/04 07:17:05;;;;;;;53.10;21.13;;;;;;;;;;4878755;29;20520;-70
2022/03/04 07:19:32;;;;;;;54.13;19.98;;;;;;;;;;4894085;29;20103;-69
2022/03/04 07:21:58;;;;;;;53.50;19.95;;;;;;;;;;4887186;29;20060;-69
2022/03/04 07:24:24;;;;;;;49.45;19.13;;;;;;;;;;4895714;29;20122;-70
2022/03/04 07:26:50;;;;;;;51.00;19.95;;;;;;;;;;4902738;29;20370;-69
2022/03/04 07:29:16;;;;;;;47.75;19.85;;;;;;;;;;4902072;29;20389;-69
2022/03/04 07:31:42;;;;;;;51.03;19.73;;;;;;;;;;4902448;29;20495;-69
2022/03/04 07:34:08;;;;;;;63.00;22.45;;;;;;;;;;4902441;29;20044;-69
2022/03/04 07:36:34;;;;;;;52.95;20.60;;;;;;;;;;4902472;29;20047;-69
2022/03/04 07:39:00;;;;;;;59.30;21.95;;;;;;;;;;4901519;29;20039;-69
2022/03/04 07:41:26;;;;;;;59.13;20.88;;;;;;;;;;4907190;29;20052;-69
2022/03/04 07:43:53;;;;;;;56.90;21.35;;;;;;;;;;4890104;29;20040;-69
2022/03/04 07:46:21;;;;;;;58.88;22.90;;;;;;;;;;4902124;29;20048;-69
2022/03/04 07:48:48;;;;;;;53.97;20.73;;;;;;;;;;4901793;29;20083;-69
2022/03/04 07:51:14;;;;;;;57.17;22.23;;;;;;;;;;4901901;29;20480;-69
2022/03/04 07:53:40;;;;;;;53.35;20.05;;;;;;;;;;4903766;29;20388;-69
2022/03/04 07:56:06;;;;;;;59.47;21.08;;;;;;;;;;4901032;29;20555;-69
2022/03/04 07:58:32;;;;;;;59.58;22.40;;;;;;;;;;4900786;29;20071;-68
2022/03/04 08:00:58;;;;;;;53.58;18.83;;;;;;;;;;4893068;29;20055;-73
2022/03/04 08:03:24;;;;;;;64.57;22.38;;;;;;;;;;4900508;29;20507;-72
2022/03/04 08:05:50;;;;;;;59.58;23.65;;;;;;;;;;4901112;29;20443;-69
2022/03/04 08:08:16;;;;;;;69.50;25.02;;;;;;;;;;4917076;29;20048;-69
2022/03/04 08:10:43;;;;;;;62.50;24.45;;;;;;;;;;4884679;29;20048;-70
2022/03/04 08:13:09;;;;;;;64.22;23.95;;;;;;;;;;4900131;29;20032;-70
2022/03/04 08:15:35;;;;;;;64.88;24.58;;;;;;;;;;4900454;29;20044;-70
2022/03/04 08:18:01;;;;;;;55.67;22.98;;;;;;;;;;4884553;29;20052;-70
2022/03/04 08:20:27;;;;;;;59.25;23.17;;;;;;;;;;4900541;29;20098;-70
2022/03/04 08:22:54;;;;;;;56.47;22.08;;;0.90;99.90;;;;;;4885036;29;20044;-68
2022/03/04 08:25:20;;;;;;;56.67;22.08;;;;;;;;;;4917679;29;20044;-68
2022/03/04 08:27:46;;;;;;;34.22;13.98;;;;;;;;;;4900663;29;20044;-76
2022/03/04 08:30:12;;;;;;;65.70;24.58;;;1.30;99.90;;;;;;4882984;29;20040;-71
2022/03/04 08:32:39;;;;;;;63.17;23.38;;;;;;;;;;4900290;29;20040;-71
2022/03/04 08:35:05;;;;;;;54.03;21.67;;;;;;;;;;4883165;29;20048;-71
2022/03/04 08:37:31;;;;;;;60.70;23.48;;;;;;;;;;4900263;29;20112;-72
2022/03/04 08:39:57;;;;;;;56.65;22.75;;;;;;;;;;4900412;29;20143;-72
2022/03/04 08:42:24;;;;;;;60.72;23.35;;;1.30;99.90;;;;;;4899236;29;20074;-72
2022/03/04 08:44:52;;;;;;;55.13;22.02;;;;;;;;;;4900585;29;20043;-72
2022/03/04 08:47:18;;;;;;;58.20;22.27;;;;;;;;;;4901037;29;20052;-72
2022/03/04 08:49:44;;;;;;;51.63;22.90;;;;;;;;;;4901017;29;20412;-72
2022/03/04 08:52:11;;;;;;;60.08;24.83;;;;;;;;;;4884712;29;20543;-71
2022/03/04 08:54:37;;;;;;;58.50;24.75;;;;;;;;;;4900981;29;20044;-71
2022/03/04 08:57:03;;;;;;;60.78;24.40;;;;;;;;;;4885654;29;20055;-72
2022/03/04 08:59:30;;;;;;;56.58;23.35;;;;;;;;;;4901043;29;20111;-72
2022/03/04 09:01:56;;;;;;;58.97;24.02;;;;;;;;;;4900749;29;20481;-72
2022/03/04 09:04:23;;;;;;;65.10;25.60;;;1.40;99.90;;;;;;4901069;29;20051;-72
2022/03/04 09:06:49;;;;;;;59.05;24.38;;;;;;;;;;4900762;29;20042;-72
2022/03/04 09:09:15;;;;;;;60.70;23.50;;;;;;;;;;4900577;29;20096;-72
2022/03/04 09:11:42;;;;;;;65.15;23.33;;;1.40;99.90;;;;;;4900806;29;20040;-72
2022/03/04 09:14:09;;;;;;;58.80;23.23;;;;;;;;;;4900953;29;20040;-72
2022/03/04 09:16:35;;;;;;;57.00;24.23;;;;;;;;;;4900996;29;20054;-72
2022/03/04 09:19:03;;;;;;;58.55;23.23;;;;;;;;;;4900931;29;20044;-72
2022/03/04 09:21:29;;;;;;;55.30;22.83;;;;;;;;;;4900503;29;20551;-72
2022/03/04 09:23:56;;;;;;;59.17;22.92;;;;;;;;;;4900621;29;20048;-72
2022/03/04 09:26:22;;;;;;;56.92;24.60;;;;;;;;;;4900657;29;20040;-72
2022/03/04 09:28:48;;;;;;;56.60;22.90;;;;;;;;;;4900411;29;20400;-72
2022/03/04 09:31:14;;;;;;;54.33;22.40;;;;;;;;;;4900521;29;20032;-72
2022/03/04 09:33:41;;;;;;;59.72;23.35;;;;;;;;;;4900674;29;20044;-72
2022/03/04 09:36:11;;;;;;;57.20;23.20;;;1.80;99.90;;;;;;4917356;29;20037;-72
2022/03/04 09:38:38;;;;;;;62.45;24.38;;;;;;;;;;4900452;29;20043;-72
2022/03/04 09:41:05;;;;;;;57.22;23.05;;;1.80;99.90;;;;;;4900484;29;20135;-72
2022/03/04 09:43:31;;;;;;;60.60;23.73;;;;;;;;;;4900481;29;20036;-72
2022/03/04 09:45:57;;;;;;;56.63;23.55;;;;;;;;;;4900242;29;20044;-72
2022/03/04 09:48:23;;;;;;;59.13;22.80;;;;;;;;;;4917197;29;20044;-71
2022/03/04 09:50:49;;;;;;;56.92;23.02;;;;;;;;;;4900373;29;20048;-71
2022/03/04 09:53:16;;;;;;;55.30;23.48;;;;;;;;;;4900302;29;20128;-72
2022/03/04 09:55:42;;;;;;;57.17;22.45;;;;;;;;;;4900470;29;20048;-72
2022/03/04 09:58:10;;;;;;;56.50;23.73;;;2.00;99.90;;;;;;4900242;29;20557;-71
2022/03/04 10:00:36;;;;;;;64.95;24.02;;;;;;;;;;4900307;29;20059;-71
2022/03/04 10:03:02;;;;;;;64.78;26.67;;;;;;;;;;4885473;29;20143;-71
2022/03/04 10:05:28;;;;;;;64.93;26.20;;;;;;;;;;4904422;29;20396;-71
2022/03/04 10:07:54;;;;;;;69.25;27.20;;;;;;;;;;4903747;29;20060;-71
2022/03/04 10:10:22;;;;;;;70.72;28.45;;;;;;;;;;4904012;29;20055;-71
2022/03/04 10:12:48;;;;;;;61.58;28.38;;;;;;;;;;4903778;29;20520;-71
2022/03/04 10:15:14;;;;;;;63.75;25.88;;;;;;;;;;4903880;29;20511;-71
2022/03/04 10:17:41;;;;;;;55.05;23.65;;;;;;;;;;4904048;29;20047;-71
2022/03/04 10:20:12;;;;;;;55.10;23.30;;;;;;;;;;4903993;29;20047;-71
2022/03/04 10:22:42;;;;;;;50.03;23.05;;;;;;;;;;4903962;29;20100;-71
2022/03/04 10:25:19;;;;;;;62.95;25.40;;;2.70;99.90;;;;;;4903709;29;20508;-74
2022/03/04 10:27:46;;;;;;;64.32;27.08;;;;;;;;;;4903544;29;20492;-75
2022/03/04 10:30:12;;;;;;;61.95;25.13;;;;;;;;;;4903682;29;20040;-75
2022/03/04 10:32:38;;;;;;;55.80;24.13;;;;;;;;;;4903793;29;20040;-75
2022/03/04 10:35:04;;;;;;;54.47;24.52;;;;;;;;;;4903801;29;20051;-75
2022/03/04 10:37:42;;;;;;;58.13;25.27;;;;;;;;;;4906258;29;20052;-74
2022/03/04 10:40:10;;;;;;;56.35;23.92;;;3.50;99.90;;;;;;4903509;29;20059;-75
2022/03/04 10:42:40;;;;;;;55.80;24.20;;;3.10;99.90;;;;;;4903669;29;20083;-75
2022/03/04 10:45:07;;;;;;;53.95;22.88;;;3.30;99.90;;;;;;4903568;29;20048;-71
2022/03/04 10:48:00;;;;;;;52.38;23.33;;;;;;;;;;4903164;29;20100;-71
2022/03/04 10:50:26;;;;;;;56.40;23.45;;;;;;;;;;4899230;29;20048;-70
2022/03/04 10:53:00;;;;;;;50.60;21.48;;;3.90;99.90;;;;;;4903157;29;20048;-70
2022/03/04 10:55:47;;;;;;;48.85;22.90;;;3.80;99.90;;;;;;4903015;29;20052;-71
2022/03/04 10:58:14;;;;;;;47.92;20.95;;;;;;;;;;4902539;29;20056;-75
2022/03/04 11:00:43;;;;;;;46.42;21.23;;;4.00;99.90;;;;;;4902993;29;20087;-71
2022/03/04 11:03:14;;;;;;;45.40;20.98;;;4.10;99.90;;;;;;4903051;29;20048;-70
2022/03/04 11:05:40;;;;;;;47.10;20.90;;;;;;;;;;4902746;29;20556;-70
2022/03/04 11:08:06;;;;;;;41.00;19.48;;;;;;;;;;4902528;29;20472;-70
2022/03/04 11:10:32;;;;;;;43.75;20.58;;;;;;;;;;4902979;29;20123;-71
2022/03/04 11:12:58;;;;;;;39.05;18.90;;;;;;;;;;4902795;29;20516;-70
2022/03/04 11:15:25;;;;;;;36.58;18.25;;;;;;;;;;4902417;29;20444;-70
2022/03/04 11:17:52;;;;;;;38.00;17.67;;;;;;;;;;4902762;29;20083;-70
2022/03/04 11:20:19;;;;;;;36.00;18.55;;;4.90;99.90;;;;;;4902723;29;20131;-70
2022/03/04 11:22:47;;;;;;;36.58;18.45;;;4.90;99.90;;;;;;4902628;29;20515;-70
2022/03/04 11:25:14;;;;;;;34.67;17.42;;;5.10;99.90;;;;;;4902581;29;20051;-70
2022/03/04 11:28:07;;;;;;;38.22;17.60;;;5.10;99.90;;;;;;4902528;29;20055;-70
2022/03/04 11:30:39;;;;;;;36.40;17.27;;;5.50;99.90;;;;;;4902467;29;20048;-70
2022/03/04 11:33:26;;;;;;;39.05;18.42;;;;;;;;;;4919382;29;20079;-70
2022/03/04 11:36:06;;;;;;;35.97;17.65;;;5.80;99.90;;;;;;4887115;29;20126;-70
2022/03/04 11:38:44;;;;;;;33.15;16.50;;;5.90;99.90;;;;;;4902793;29;20055;-70
2022/03/04 11:41:27;;;;;;;33.85;16.83;;;5.80;99.90;;;;;;4902234;29;20079;-70
2022/03/04 11:43:53;;;;;;;;;;;;;;;;;;4902655;29;20497;-70
2022/03/04 11:46:19;;;;;;;34.55;16.60;;;6.30;99.90;;;;;;4902431;29;19962;-70
2022/03/04 11:48:45;;;;;;;31.48;15.38;;;;;;;;;;4886524;29;20378;-70
2022/03/04 11:51:20;;;;;;;32.35;15.40;;;6.30;99.90;;;;;;4919597;29;20075;-70
2022/03/04 11:54:34;;;;;;;31.70;15.40;;;6.50;99.90;;;;;;4919003;29;20059;-70
2022/03/04 11:57:00;;;;;;;30.92;15.20;;;;;;;;;;4835205;29;20495;-70
2022/03/04 11:59:26;;;;;;;34.50;16.02;;;;;;;;;;4902428;29;20044;-70
2022/03/04 12:01:55;;;;;;;30.17;16.63;;;;;;;;;;4902205;29;20071;-70
2022/03/04 12:04:21;;;;;;;29.38;15.48;;;;;;;;;;4902355;29;20051;-70
2022/03/04 12:07:06;;;;;;;27.25;15.32;;;;;;;;;;4901853;29;20044;-70
2022/03/04 12:09:32;;;;;;;26.75;14.10;;;;;;;;;;4901925;29;20048;-70
2022/03/04 12:12:13;;;;;;;29.10;13.98;;;7.40;99.90;;;;;;4901924;29;20048;-70
2022/03/04 12:14:48;;;;;;;30.60;15.13;;;7.30;99.90;;;;;;4901671;29;20072;-69
2022/03/04 12:17:15;;;;;;;24.73;13.55;;;;;;;;;;4901847;29;20055;-70
2022/03/04 12:19:42;;;;;;;26.50;13.90;;;;;;;;;;4901539;29;20051;-74
2022/03/04 12:22:08;;;;;;;27.52;14.68;;;;;;;;;;4886119;29;20044;-74
2022/03/04 12:24:35;;;;;;;26.85;14.65;;;7.90;99.90;;;;;;4918525;29;20044;-74
2022/03/04 12:27:02;;;;;;;26.45;14.57;;;;;;;;;;4900670;29;20503;-74
2022/03/04 12:29:45;;;;;;;25.30;13.07;;;8.10;99.90;;;;;;4901667;29;20374;-74
2022/03/04 12:32:11;;;;;;;;;;;8.20;99.90;;;;;;4901736;29;20528;-70
2022/03/04 12:34:46;;;;;;;21.02;12.07;;;;;;;;;;4901292;29;19921;-70
2022/03/04 12:37:14;;;;;;;24.27;12.27;;;;;;;;;;4901224;29;20048;-70
2022/03/04 12:39:40;;;;;;;22.48;12.23;;;8.40;99.90;;;;;;4901201;29;20052;-70
2022/03/04 12:42:09;;;;;;;20.40;12.07;;;8.60;99.90;;;;;;4901525;29;20077;-70
2022/03/04 12:44:36;;;;;;;26.70;12.60;;;8.40;99.90;;;;;;4901117;29;20044;-70
2022/03/04 12:47:03;;;;;;;23.08;13.10;;;8.60;99.90;;;;;;4918336;29;20044;-70
2022/03/04 12:49:30;;;;;;;22.48;13.02;;;8.50;99.90;;;;;;4901133;29;20442;-69
2022/03/04 12:51:57;;;;;;;22.95;12.65;;;;;;;;;;4901153;29;20043;-69
2022/03/04 12:54:31;;;;;;;23.63;12.73;;;9.20;99.90;;;;;;4885134;29;20044;-70
2022/03/04 12:57:01;;;;;;;22.70;12.80;;;;;;;;;;4900979;29;20084;-70
2022/03/04 12:59:28;;;;;;;27.83;12.27;;;;;;;;;;4901027;29;20489;-70
2022/03/04 13:01:54;;;;;;;27.63;13.10;;;;;;;;;;4901042;29;20048;-70
2022/03/04 13:04:22;;;;;;;26.92;13.02;;;9.60;99.90;;;;;;4901016;29;20048;-70
2022/03/04 13:07:01;;;;;;;25.60;13.38;;;9.50;99.20;;;;;;4900849;29;20056;-70
2022/03/04 13:09:27;;;;;;;26.08;13.50;;;9.70;99.20;;;;;;4885159;29;20396;-70
2022/03/04 13:11:54;;;;;;;24.85;14.00;;;;;;;;;;4884927;29;20123;-70
2022/03/04 13:14:21;;;;;;;26.50;14.43;;;9.80;98.90;;;;;;4900569;29;20044;-70
2022/03/04 13:16:50;;;;;;;26.25;14.63;;;9.90;99.20;;;;;;4900557;29;20040;-70
2022/03/04 13:19:23;;;;;;;29.90;14.35;;;9.80;99.10;;;;;;4900765;29;20131;-69
2022/03/04 13:21:59;;;;;;;29.75;14.85;;;10.10;98.20;;;;;;4900572;29;20048;-70
2022/03/04 13:24:25;;;;;;;24.75;12.57;;;;;;;;;;4900637;29;20136;-69
2022/03/04 13:26:54;;;;;;;22.98;11.80;;;10.30;98.00;;;;;;4900386;29;20059;-70
2022/03/04 13:29:21;;;;;;;23.27;12.55;;;10.60;98.10;;;;;;4900622;29;20102;-70
2022/03/04 13:31:47;;;;;;;25.52;12.68;;;;;;;;;;4900612;29;20060;-70
2022/03/04 13:34:14;;;;;;;29.30;13.73;;;10.50;97.50;;;;;;4900697;29;20099;-70
2022/03/04 13:36:47;;;;;;;25.92;13.25;;;;;;;;;;4900694;29;20070;-74
2022/03/04 13:39:17;;;;;;;24.15;13.23;;;10.80;97.00;;;;;;4900052;29;20099;-74
2022/03/04 13:41:43;;;;;;;26.27;13.98;;;;;;;;;;4917382;29;20044;-74
2022/03/04 13:44:14;;;;;;;23.88;13.13;;;10.70;96.20;;;;;;4900407;29;20085;-74
2022/03/04 13:47:05;;;;;;;22.77;12.18;;;10.60;96.70;;;;;;4900173;29;20044;-74
2022/03/04 13:49:42;;;;;;;24.67;12.05;;;10.90;96.00;;;;;;4889833;29;20044;-74
2022/03/04 13:52:08;;;;;;;23.95;13.20;;;11.20;99.30;;;;;;4900199;29;20547;-74
2022/03/04 13:54:50;;;;;;;28.52;13.95;;;11.00;96.00;;;;;;4900176;29;20040;-75